sensor_id;sensor_type;location;lat;lon;timestamp;pressure;altitude;pressure_sealevel;temperature;humidity
22605;BME280;11469;49.024;8.246;2023-04-05T00:00:51;101069.44;;;1.18;79.48
22605;BME280;11469;49.024;8.246;2023-04-05T00:03:18;101065.34;;;1.00;79.29
22605;BME280;11469;49.024;8.246;2023-04-05T00:05:44;101066.72;;;1.03;79.38
22605;BME280;11469;49.024;8.246;2023-04-05T00:08:10;101073.63;;;1.00;79.67
22605;BME280;11469;49.024;8.246;2023-04-05T00:10:48;101070.38;;;0.93;79.93
22605;BME280;11469;49.024;8.246;2023-04-05T00:13:14;101066.00;;;0.82;80.52
22605;BME280;11469;49.024;8.246;2023-04-05T00:15:39;101064.63;;;0.75;81.12
22605;BME280;11469;49.024;8.246;2023-04-05T00:18:05;101058.03;;;0.71;81.52
22605;BME280;11469;49.024;8.246;2023-04-05T00:20:31;101059.38;;;0.78;81.67
22605;BME280;11469;49.024;8.246;2023-04-05T00:22:57;101053.84;;;0.83;81.58
22605;BME280;11469;49.024;8.246;2023-04-05T00:25:23;101054.41;;;0.85;81.38
22605;BME280;11469;49.024;8.246;2023-04-05T00:27:48;101052.22;;;0.77;81.17
22605;BME280;11469;49.024;8.246;2023-04-05T00:30:14;101051.66;;;0.75;81.18
22605;BME280;11469;49.024;8.246;2023-04-05T00:32:47;101045.59;;;0.73;80.88
22605;BME280;11469;49.024;8.246;2023-04-05T00:35:13;101042.31;;;0.61;80.91
22605;BME280;11469;49.024;8.246;2023-04-05T00:37:39;101039.84;;;0.59;81.42
22605;BME280;11469;49.024;8.246;2023-04-05T00:40:05;101042.31;;;0.61;81.58
22605;BME280;11469;49.024;8.246;2023-04-05T00:42:30;101039.03;;;0.54;82.62
22605;BME280;11469;49.024;8.246;2023-04-05T00:44:55;101036.25;;;0.54;82.37
22605;BME280;11469;49.024;8.246;2023-04-05T00:47:21;101038.75;;;0.55;82.40
22605;BME280;11469;49.024;8.246;2023-04-05T00:49:46;101044.53;;;0.59;82.99
22605;BME280;11469;49.024;8.246;2023-04-05T00:52:12;101038.47;;;0.57;82.89
22605;BME280;11469;49.024;8.246;2023-04-05T00:54:39;101045.97;;;0.46;83.59
22605;BME280;11469;49.024;8.246;2023-04-05T00:57:05;101035.50;;;0.38;84.38
22605;BME280;11469;49.024;8.246;2023-04-05T00:59:32;101029.69;;;0.45;84.53
22605;BME280;11469;49.024;8.246;2023-04-05T01:02:02;101026.94;;;0.40;84.02
22605;BME280;11469;49.024;8.246;2023-04-05T01:04:31;101027.47;;;0.42;84.22
22605;BME280;11469;49.024;8.246;2023-04-05T01:07:16;101021.97;;;0.37;84.23
22605;BME280;11469;49.024;8.246;2023-04-05T01:09:56;101023.66;;;0.22;83.51
22605;BME280;11469;49.024;8.246;2023-04-05T01:12:26;101022.81;;;0.27;83.69
22605;BME280;11469;49.024;8.246;2023-04-05T01:14:53;101020.88;;;0.27;84.04
22605;BME280;11469;49.024;8.246;2023-04-05T01:17:20;101024.75;;;0.16;84.19
22605;BME280;11469;49.024;8.246;2023-04-05T01:19:52;101015.13;;;0.09;84.44
22605;BME280;11469;49.024;8.246;2023-04-05T01:30:25;101002.16;;;0.09;84.94
22605;BME280;11469;49.024;8.246;2023-04-05T01:33:48;100998.84;;;0.02;84.45
22605;BME280;11469;49.024;8.246;2023-04-05T01:35:51;100998.63;;;-0.02;84.56
22605;BME280;11469;49.024;8.246;2023-04-05T01:38:22;100996.97;;;-0.03;84.30
22605;BME280;11469;49.024;8.246;2023-04-05T01:40:50;100994.75;;;-0.01;84.40
22605;BME280;11469;49.024;8.246;2023-04-05T01:43:16;100994.47;;;-0.04;84.32
22605;BME280;11469;49.024;8.246;2023-04-05T01:45:43;100992.81;;;0.00;84.30
22605;BME280;11469;49.024;8.246;2023-04-05T01:48:09;100996.09;;;0.02;84.72
22605;BME280;11469;49.024;8.246;2023-04-05T01:50:34;100996.66;;;0.04;84.58
22605;BME280;11469;49.024;8.246;2023-04-05T01:53:00;100998.56;;;0.09;84.35
22605;BME280;11469;49.024;8.246;2023-04-05T01:55:25;100995.28;;;0.07;83.51
22605;BME280;11469;49.024;8.246;2023-04-05T01:57:52;101002.97;;;0.05;83.68
22605;BME280;11469;49.024;8.246;2023-04-05T02:00:18;100992.78;;;0.05;83.27
22605;BME280;11469;49.024;8.246;2023-04-05T02:02:43;100993.38;;;-0.03;83.13
22605;BME280;11469;49.024;8.246;2023-04-05T02:05:09;100987.88;;;-0.03;83.22
22605;BME280;11469;49.024;8.246;2023-04-05T02:07:34;100980.69;;;-0.04;83.58
22605;BME280;11469;49.024;8.246;2023-04-05T02:10:00;100984.56;;;-0.15;83.53
22605;BME280;11469;49.024;8.246;2023-04-05T02:12:25;100976.28;;;-0.15;84.12
22605;BME280;11469;49.024;8.246;2023-04-05T02:14:50;100980.97;;;-0.21;83.98
22605;BME280;11469;49.024;8.246;2023-04-05T02:17:17;100978.22;;;-0.26;83.98
22605;BME280;11469;49.024;8.246;2023-04-05T02:19:42;100980.97;;;-0.26;84.07
22605;BME280;11469;49.024;8.246;2023-04-05T02:22:10;100978.50;;;-0.22;83.95
22605;BME280;11469;49.024;8.246;2023-04-05T02:24:36;100984.00;;;-0.22;83.98
22605;BME280;11469;49.024;8.246;2023-04-05T02:27:01;100977.94;;;-0.35;83.84
22605;BME280;11469;49.024;8.246;2023-04-05T02:29:27;100979.03;;;-0.36;84.38
22605;BME280;11469;49.024;8.246;2023-04-05T02:31:53;100985.38;;;-0.35;84.56
22605;BME280;11469;49.024;8.246;2023-04-05T02:34:18;100982.06;;;-0.42;85.07
22605;BME280;11469;49.024;8.246;2023-04-05T02:36:43;100974.06;;;-0.44;85.30
22605;BME280;11469;49.024;8.246;2023-04-05T02:39:09;100978.22;;;-0.41;85.44
22605;BME280;11469;49.024;8.246;2023-04-05T02:41:35;100977.09;;;-0.45;85.87
22605;BME280;11469;49.024;8.246;2023-04-05T02:44:01;100978.19;;;-0.46;86.34
22605;BME280;11469;49.024;8.246;2023-04-05T02:46:26;100975.72;;;-0.43;86.53
22605;BME280;11469;49.024;8.246;2023-04-05T02:48:52;100984.28;;;-0.44;86.01
22605;BME280;11469;49.024;8.246;2023-04-05T02:51:17;100990.59;;;-0.44;85.73
22605;BME280;11469;49.024;8.246;2023-04-05T02:53:42;100986.78;;;-0.48;85.88
22605;BME280;11469;49.024;8.246;2023-04-05T02:56:09;100980.13;;;-0.47;85.49
22605;BME280;11469;49.024;8.246;2023-04-05T02:58:37;100979.63;;;-0.49;85.44
22605;BME280;11469;49.024;8.246;2023-04-05T03:01:03;100982.34;;;-0.44;85.36
22605;BME280;11469;49.024;8.246;2023-04-05T03:03:32;100977.94;;;-0.29;85.07
22605;BME280;11469;49.024;8.246;2023-04-05T03:06:03;100980.69;;;-0.24;83.67
22605;BME280;11469;49.024;8.246;2023-04-05T03:08:37;100975.47;;;-0.21;82.93
22605;BME280;11469;49.024;8.246;2023-04-05T03:11:05;100983.19;;;-0.28;82.71
22605;BME280;11469;49.024;8.246;2023-04-05T03:13:31;100980.97;;;-0.11;82.34
22605;BME280;11469;49.024;8.246;2023-04-05T03:15:56;100975.19;;;-0.09;81.82
22605;BME280;11469;49.024;8.246;2023-04-05T03:18:21;100969.13;;;-0.16;82.06
22605;BME280;11469;49.024;8.246;2023-04-05T03:20:49;100974.09;;;-0.23;82.38
22605;BME280;11469;49.024;8.246;2023-04-05T03:23:21;100971.88;;;-0.11;81.70
22605;BME280;11469;49.024;8.246;2023-04-05T03:28:24;100966.09;;;-0.05;80.72
22605;BME280;11469;49.024;8.246;2023-04-05T03:30:50;100970.78;;;-0.10;81.25
22605;BME280;11469;49.024;8.246;2023-04-05T03:33:16;100969.41;;;-0.08;81.39
22605;BME280;11469;49.024;8.246;2023-04-05T03:35:42;100971.06;;;-0.17;81.37
22605;BME280;11469;49.024;8.246;2023-04-05T03:38:08;100974.63;;;-0.16;81.34
22605;BME280;11469;49.024;8.246;2023-04-05T03:40:34;100974.63;;;-0.31;81.67
22605;BME280;11469;49.024;8.246;2023-04-05T03:42:59;100975.47;;;-0.16;81.60
22605;BME280;11469;49.024;8.246;2023-04-05T03:45:24;100973.25;;;-0.14;81.01
22605;BME280;11469;49.024;8.246;2023-04-05T03:47:51;100966.91;;;-0.35;81.39
22605;BME280;11469;49.024;8.246;2023-04-05T03:50:17;100967.47;;;-0.32;81.54
22605;BME280;11469;49.024;8.246;2023-04-05T03:52:42;100966.38;;;-0.37;81.60
22605;BME280;11469;49.024;8.246;2023-04-05T03:55:08;100961.69;;;-0.41;82.21
22605;BME280;11469;49.024;8.246;2023-04-05T03:57:36;100955.06;;;-0.40;81.72
22605;BME280;11469;49.024;8.246;2023-04-05T04:00:01;100960.31;;;-0.44;82.07
22605;BME280;11469;49.024;8.246;2023-04-05T04:02:40;100963.63;;;-0.37;81.78
22605;BME280;11469;49.024;8.246;2023-04-05T04:05:06;100968.28;;;-0.42;81.85
22605;BME280;11469;49.024;8.246;2023-04-05T04:07:31;100966.09;;;-0.40;81.86
22605;BME280;11469;49.024;8.246;2023-04-05T04:09:57;100972.72;;;-0.31;81.29
22605;BME280;11469;49.024;8.246;2023-04-05T04:12:22;100960.84;;;-0.42;81.44
22605;BME280;11469;49.024;8.246;2023-04-05T04:14:47;100969.69;;;-0.35;81.55
22605;BME280;11469;49.024;8.246;2023-04-05T04:17:28;100965.00;;;-0.09;79.69
22605;BME280;11469;49.024;8.246;2023-04-05T04:19:55;100953.97;;;-0.04;78.56
22605;BME280;11469;49.024;8.246;2023-04-05T04:22:24;100967.19;;;-0.01;78.27
22605;BME280;11469;49.024;8.246;2023-04-05T04:24:59;100971.00;;;0.04;78.41
22605;BME280;11469;49.024;8.246;2023-04-05T04:27:32;100971.56;;;0.11;78.16
22605;BME280;11469;49.024;8.246;2023-04-05T04:30:00;100965.53;;;-0.07;78.61
22605;BME280;11469;49.024;8.246;2023-04-05T04:32:28;100963.06;;;-0.18;79.14
22605;BME280;11469;49.024;8.246;2023-04-05T04:35:18;100955.59;;;0.03;78.08
22605;BME280;11469;49.024;8.246;2023-04-05T04:37:52;100966.59;;;0.13;77.50
22605;BME280;11469;49.024;8.246;2023-04-05T04:40:19;100955.34;;;-0.06;78.54
22605;BME280;11469;49.024;8.246;2023-04-05T04:42:45;100957.78;;;0.00;78.57
22605;BME280;11469;49.024;8.246;2023-04-05T04:45:15;100955.03;;;0.11;77.66
22605;BME280;11469;49.024;8.246;2023-04-05T04:47:46;100954.75;;;0.07;77.89
22605;BME280;11469;49.024;8.246;2023-04-05T04:50:12;100955.06;;;-0.10;78.55
22605;BME280;11469;49.024;8.246;2023-04-05T04:52:39;100951.75;;;-0.12;79.43
22605;BME280;11469;49.024;8.246;2023-04-05T04:55:09;100952.88;;;-0.03;79.00
22605;BME280;11469;49.024;8.246;2023-04-05T04:57:35;100953.41;;;-0.01;78.64
22605;BME280;11469;49.024;8.246;2023-04-05T05:00:00;100954.75;;;0.07;78.35
22605;BME280;11469;49.024;8.246;2023-04-05T05:02:26;100959.16;;;0.13;78.21
22605;BME280;11469;49.024;8.246;2023-04-05T05:04:52;100955.84;;;0.11;77.94
22605;BME280;11469;49.024;8.246;2023-04-05T05:07:18;100964.66;;;0.23;77.67
22605;BME280;11469;49.024;8.246;2023-04-05T05:09:44;100960.81;;;0.09;77.98
22605;BME280;11469;49.024;8.246;2023-04-05T05:12:10;100966.56;;;0.23;77.84
22605;BME280;11469;49.024;8.246;2023-04-05T05:14:35;100963.53;;;0.24;77.97
22605;BME280;11469;49.024;8.246;2023-04-05T05:17:01;100974.56;;;0.19;78.19
22605;BME280;11469;49.024;8.246;2023-04-05T05:19:29;100984.78;;;0.19;78.37
22605;BME280;11469;49.024;8.246;2023-04-05T05:21:55;100980.09;;;0.19;78.03
22605;BME280;11469;49.024;8.246;2023-04-05T05:24:21;100980.91;;;0.20;78.05
22605;BME280;11469;49.024;8.246;2023-04-05T05:26:46;100981.75;;;0.20;78.85
22605;BME280;11469;49.024;8.246;2023-04-05T05:29:12;100979.00;;;0.10;78.67
22605;BME280;11469;49.024;8.246;2023-04-05T05:31:37;100986.72;;;0.18;79.00
22605;BME280;11469;49.024;8.246;2023-04-05T05:34:03;100986.72;;;0.18;78.63
22605;BME280;11469;49.024;8.246;2023-04-05T05:36:28;100991.66;;;0.26;78.53
22605;BME280;11469;49.024;8.246;2023-04-05T05:38:55;100982.28;;;0.32;77.99
22605;BME280;11469;49.024;8.246;2023-04-05T05:41:20;100998.28;;;0.30;78.31
22605;BME280;11469;49.024;8.246;2023-04-05T05:43:46;100995.22;;;0.42;77.72
22605;BME280;11469;49.024;8.246;2023-04-05T05:46:12;100993.56;;;0.41;77.65
22605;BME280;11469;49.024;8.246;2023-04-05T05:48:37;100996.59;;;0.40;77.33
22605;BME280;11469;49.024;8.246;2023-04-05T05:51:03;101001.28;;;0.44;77.53
22605;BME280;11469;49.024;8.246;2023-04-05T05:53:35;100999.84;;;0.52;77.33
22605;BME280;11469;49.024;8.246;2023-04-05T05:56:01;101004.59;;;0.46;77.89
22605;BME280;11469;49.024;8.246;2023-04-05T05:58:26;101009.50;;;0.59;77.35
22605;BME280;11469;49.024;8.246;2023-04-05T06:00:52;101005.84;;;0.74;76.75
22605;BME280;11469;49.024;8.246;2023-04-05T06:03:21;101012.19;;;0.75;76.80
22605;BME280;11469;49.024;8.246;2023-04-05T06:05:54;100999.19;;;0.90;76.83
22605;BME280;11469;49.024;8.246;2023-04-05T06:08:20;101003.81;;;0.95;76.15
22605;BME280;11469;49.024;8.246;2023-04-05T06:10:45;100994.44;;;0.96;75.71
22605;BME280;11469;49.024;8.246;2023-04-05T06:13:11;101000.47;;;1.03;75.60
22605;BME280;11469;49.024;8.246;2023-04-05T06:15:36;100999.84;;;1.16;77.03
22605;BME280;11469;49.024;8.246;2023-04-05T06:18:02;100996.78;;;1.62;75.37
22605;BME280;11469;49.024;8.246;2023-04-05T06:20:27;101002.41;;;1.86;74.78
22605;BME280;11469;49.024;8.246;2023-04-05T06:22:52;100992.22;;;2.10;73.66
22605;BME280;11469;49.024;8.246;2023-04-05T06:25:18;100991.03;;;2.45;73.79
22605;BME280;11469;49.024;8.246;2023-04-05T06:27:43;100993.72;;;2.98;70.84
22605;BME280;11469;49.024;8.246;2023-04-05T06:30:09;101002.41;;;3.10;70.63
22605;BME280;11469;49.024;8.246;2023-04-05T06:32:34;100994.41;;;3.65;65.07
22605;BME280;11469;49.024;8.246;2023-04-05T06:35:00;101003.81;;;3.83;64.64
22605;BME280;11469;49.024;8.246;2023-04-05T06:37:28;100992.56;;;3.93;64.87
22605;BME280;11469;49.024;8.246;2023-04-05T06:39:53;100994.66;;;4.01;63.61
22605;BME280;11469;49.024;8.246;2023-04-05T06:42:19;100992.84;;;3.91;62.10
22605;BME280;11469;49.024;8.246;2023-04-05T06:44:44;100992.16;;;3.67;61.76
22605;BME280;11469;49.024;8.246;2023-04-05T06:47:10;100995.41;;;3.55;61.67
22605;BME280;11469;49.024;8.246;2023-04-05T06:49:35;100994.63;;;3.31;61.93
22605;BME280;11469;49.024;8.246;2023-04-05T06:52:00;100999.59;;;2.91;63.88
22605;BME280;11469;49.024;8.246;2023-04-05T06:54:27;100991.34;;;3.10;64.20
22605;BME280;11469;49.024;8.246;2023-04-05T06:56:52;100996.28;;;3.32;63.86
22605;BME280;11469;49.024;8.246;2023-04-05T06:59:17;101001.47;;;3.20;63.41
22605;BME280;11469;49.024;8.246;2023-04-05T07:01:43;100998.00;;;3.09;65.01
22605;BME280;11469;49.024;8.246;2023-04-05T07:04:09;100993.59;;;3.08;64.08
22605;BME280;11469;49.024;8.246;2023-04-05T07:06:34;101003.88;;;3.26;63.69
22605;BME280;11469;49.024;8.246;2023-04-05T07:09:03;100989.09;;;3.31;63.14
22605;BME280;11469;49.024;8.246;2023-04-05T07:11:29;101002.16;;;3.30;62.74
22605;BME280;11469;49.024;8.246;2023-04-05T07:14:00;100996.28;;;3.32;62.66
22605;BME280;11469;49.024;8.246;2023-04-05T07:16:26;100998.75;;;3.15;63.81
22605;BME280;11469;49.024;8.246;2023-04-05T07:18:54;100991.13;;;3.25;62.75
22605;BME280;11469;49.024;8.246;2023-04-05T07:21:20;100993.22;;;3.33;62.70
22605;BME280;11469;49.024;8.246;2023-04-05T07:23:45;100998.44;;;3.35;62.08
22605;BME280;11469;49.024;8.246;2023-04-05T07:26:11;100989.25;;;3.21;62.37
22605;BME280;11469;49.024;8.246;2023-04-05T07:28:36;100987.38;;;3.54;62.15
22605;BME280;11469;49.024;8.246;2023-04-05T07:31:04;100985.81;;;3.66;61.34
22605;BME280;11469;49.024;8.246;2023-04-05T07:33:29;100990.13;;;3.73;60.99
22605;BME280;11469;49.024;8.246;2023-04-05T07:35:55;100994.78;;;3.58;60.57
22605;BME280;11469;49.024;8.246;2023-04-05T07:38:21;100993.75;;;3.73;60.74
22605;BME280;11469;49.024;8.246;2023-04-05T07:40:47;100993.75;;;3.73;61.15
22605;BME280;11469;49.024;8.246;2023-04-05T07:43:14;100993.28;;;3.98;61.86
22605;BME280;11469;49.024;8.246;2023-04-05T07:45:39;101002.28;;;4.09;60.03
22605;BME280;11469;49.024;8.246;2023-04-05T07:48:04;100994.88;;;3.86;60.50
22605;BME280;11469;49.024;8.246;2023-04-05T07:50:30;100999.53;;;3.90;60.18
22605;BME280;11469;49.024;8.246;2023-04-05T07:52:55;101001.59;;;4.17;60.43
22605;BME280;11469;49.024;8.246;2023-04-05T07:55:21;101004.06;;;4.32;60.17
22605;BME280;11469;49.024;8.246;2023-04-05T07:57:46;100995.63;;;4.38;58.25
22605;BME280;11469;49.024;8.246;2023-04-05T08:00:12;100998.88;;;4.58;58.45
22605;BME280;11469;49.024;8.246;2023-04-05T08:02:38;101005.84;;;4.56;56.65
22605;BME280;11469;49.024;8.246;2023-04-05T08:05:04;101003.41;;;4.68;57.26
22605;BME280;11469;49.024;8.246;2023-04-05T08:07:29;101005.75;;;4.88;56.78
22605;BME280;11469;49.024;8.246;2023-04-05T08:09:55;100995.03;;;4.95;56.24
22605;BME280;11469;49.024;8.246;2023-04-05T08:12:22;100997.72;;;5.14;54.95
22605;BME280;11469;49.024;8.246;2023-04-05T08:14:48;100997.44;;;5.38;55.58
22605;BME280;11469;49.024;8.246;2023-04-05T08:17:14;100987.56;;;5.32;55.37
22605;BME280;11469;49.024;8.246;2023-04-05T08:19:40;100994.25;;;5.31;55.24
22605;BME280;11469;49.024;8.246;2023-04-05T08:22:05;100994.78;;;5.33;55.37
22605;BME280;11469;49.024;8.246;2023-04-05T08:24:31;100997.03;;;5.31;56.03
22605;BME280;11469;49.024;8.246;2023-04-05T08:26:56;100997.25;;;5.34;55.71
22605;BME280;11469;49.024;8.246;2023-04-05T08:29:22;101001.88;;;5.39;55.98
22605;BME280;11469;49.024;8.246;2023-04-05T08:31:47;100994.94;;;5.50;55.98
22605;BME280;11469;49.024;8.246;2023-04-05T08:34:12;100988.25;;;5.51;55.15
22605;BME280;11469;49.024;8.246;2023-04-05T08:36:38;100997.25;;;5.34;54.06
22605;BME280;11469;49.024;8.246;2023-04-05T08:39:03;100997.41;;;5.16;55.54
22605;BME280;11469;49.024;8.246;2023-04-05T08:41:35;100996.59;;;5.51;54.85
22605;BME280;11469;49.024;8.246;2023-04-05T08:44:08;100992.91;;;5.42;55.11
22605;BME280;11469;49.024;8.246;2023-04-05T08:46:34;100987.78;;;5.22;55.53
22605;BME280;11469;49.024;8.246;2023-04-05T08:49:05;100995.41;;;5.30;55.28
22605;BME280;11469;49.024;8.246;2023-04-05T08:51:36;100995.25;;;5.49;54.02
22605;BME280;11469;49.024;8.246;2023-04-05T08:54:03;100998.44;;;5.78;53.10
22605;BME280;11469;49.024;8.246;2023-04-05T08:56:33;100998.47;;;6.01;53.48
22605;BME280;11469;49.024;8.246;2023-04-05T08:59:03;100990.00;;;6.06;52.28
22605;BME280;11469;49.024;8.246;2023-04-05T09:01:30;100998.50;;;5.87;51.29
22605;BME280;11469;49.024;8.246;2023-04-05T09:03:59;100996.25;;;5.89;51.80
22605;BME280;11469;49.024;8.246;2023-04-05T09:06:25;100991.97;;;6.05;51.04
22605;BME280;11469;49.024;8.246;2023-04-05T09:08:55;100986.84;;;5.98;49.89
22605;BME280;11469;49.024;8.246;2023-04-05T09:11:21;100984.16;;;6.16;49.58
22605;BME280;11469;49.024;8.246;2023-04-05T09:13:47;100991.69;;;6.15;49.63
22605;BME280;11469;49.024;8.246;2023-04-05T09:16:13;100989.38;;;6.09;50.22
22605;BME280;11469;49.024;8.246;2023-04-05T09:18:40;100983.06;;;5.81;49.80
22605;BME280;11469;49.024;8.246;2023-04-05T09:21:06;100978.47;;;5.76;50.61
22605;BME280;11469;49.024;8.246;2023-04-05T09:23:35;100980.19;;;6.08;50.08
22605;BME280;11469;49.024;8.246;2023-04-05T09:26:21;100979.81;;;6.01;50.63
22605;BME280;11469;49.024;8.246;2023-04-05T09:28:47;100982.09;;;5.99;49.59
22605;BME280;11469;49.024;8.246;2023-04-05T09:31:29;100977.44;;;6.17;50.15
22605;BME280;11469;49.024;8.246;2023-04-05T09:33:59;100980.44;;;6.51;49.47
22605;BME280;11469;49.024;8.246;2023-04-05T09:36:26;100974.69;;;6.48;49.70
22605;BME280;11469;49.024;8.246;2023-04-05T09:38:52;100974.94;;;6.77;48.76
22605;BME280;11469;49.024;8.246;2023-04-05T09:41:18;100978.78;;;6.50;48.09
22605;BME280;11469;49.024;8.246;2023-04-05T09:43:43;100975.06;;;6.63;47.83
22605;BME280;11469;49.024;8.246;2023-04-05T09:46:27;100971.72;;;6.92;48.38
22605;BME280;11469;49.024;8.246;2023-04-05T09:48:54;100970.88;;;6.83;47.57
22605;BME280;11469;49.024;8.246;2023-04-05T09:51:21;100966.22;;;6.61;48.87
22605;BME280;11469;49.024;8.246;2023-04-05T09:54:05;100965.59;;;6.73;46.99
22605;BME280;11469;49.024;8.246;2023-04-05T09:56:33;100966.00;;;6.97;47.55
22605;BME280;11469;49.024;8.246;2023-04-05T09:59:07;100962.41;;;6.97;47.66
22605;BME280;11469;49.024;8.246;2023-04-05T10:01:33;100959.75;;;6.92;47.21
22605;BME280;11469;49.024;8.246;2023-04-05T10:03:59;100959.47;;;7.02;47.54
22605;BME280;11469;49.024;8.246;2023-04-05T10:06:39;100967.06;;;7.36;47.29
22605;BME280;11469;49.024;8.246;2023-04-05T10:09:07;100965.09;;;7.37;nan
22605;BME280;11469;49.024;8.246;2023-04-05T10:11:33;100961.66;;;7.48;45.36
22605;BME280;11469;49.024;8.246;2023-04-05T10:14:04;100961.16;;;7.55;46.36
22605;BME280;11469;49.024;8.246;2023-04-05T10:16:44;100959.34;;;7.50;46.07
22605;BME280;11469;49.024;8.246;2023-04-05T10:19:22;100964.91;;;7.59;46.10
22605;BME280;11469;49.024;8.246;2023-04-05T10:21:51;100950.13;;;7.67;45.74
22605;BME280;11469;49.024;8.246;2023-04-05T10:24:33;100946.84;;;7.74;44.94
22605;BME280;11469;49.024;8.246;2023-04-05T10:27:17;100945.72;;;7.75;43.25
22605;BME280;11469;49.024;8.246;2023-04-05T10:29:50;100950.13;;;7.84;42.55
22605;BME280;11469;49.024;8.246;2023-04-05T10:40:48;100938.03;;;8.27;43.38
22605;BME280;11469;49.024;8.246;2023-04-05T10:43:24;100936.41;;;8.35;43.45
22605;BME280;11469;49.024;8.246;2023-04-05T10:45:52;100934.91;;;8.46;41.96
22605;BME280;11469;49.024;8.246;2023-04-05T10:48:39;100929.84;;;8.39;42.05
22605;BME280;11469;49.024;8.246;2023-04-05T10:51:10;100929.41;;;8.58;41.96
22605;BME280;11469;49.024;8.246;2023-04-05T10:53:36;100933.13;;;8.24;42.18
22605;BME280;11469;49.024;8.246;2023-04-05T10:56:02;100922.34;;;8.52;42.49
22605;BME280;11469;49.024;8.246;2023-04-05T10:58:29;100927.78;;;8.02;42.56
22605;BME280;11469;49.024;8.246;2023-04-05T11:00:55;100922.13;;;7.46;43.49
22605;BME280;11469;49.024;8.246;2023-04-05T11:03:43;100917.66;;;7.71;43.72
22605;BME280;11469;49.024;8.246;2023-04-05T11:09:18;100917.72;;;8.09;42.24
22605;BME280;11469;49.024;8.246;2023-04-05T11:11:49;100910.88;;;7.98;41.69
22605;BME280;11469;49.024;8.246;2023-04-05T11:14:25;100916.06;;;8.17;43.60
22605;BME280;11469;49.024;8.246;2023-04-05T11:16:59;100904.25;;;8.58;43.16
22605;BME280;11469;49.024;8.246;2023-04-05T11:19:47;100911.16;;;8.60;41.24
22605;BME280;11469;49.024;8.246;2023-04-05T11:22:23;100912.28;;;8.13;42.02
22605;BME280;11469;49.024;8.246;2023-04-05T11:27:15;100899.56;;;8.50;42.42
22605;BME280;11469;49.024;8.246;2023-04-05T11:29:45;100899.78;;;8.65;42.29
22605;BME280;11469;49.024;8.246;2023-04-05T11:32:12;100899.34;;;8.84;41.70
22605;BME280;11469;49.024;8.246;2023-04-05T11:34:40;100889.00;;;9.06;42.04
22605;BME280;11469;49.024;8.246;2023-04-05T11:37:06;100894.88;;;9.13;42.15
22605;BME280;11469;49.024;8.246;2023-04-05T11:39:31;100882.00;;;8.70;40.84
22605;BME280;11469;49.024;8.246;2023-04-05T11:42:01;100880.94;;;8.54;41.27
22605;BME280;11469;49.024;8.246;2023-04-05T11:44:48;100888.50;;;8.53;40.19
22605;BME280;11469;49.024;8.246;2023-04-05T11:47:17;100885.28;;;8.72;39.76
22605;BME280;11469;49.024;8.246;2023-04-05T11:49:48;100882.16;;;8.74;40.68
22605;BME280;11469;49.024;8.246;2023-04-05T11:52:18;100878.09;;;8.92;41.20
22605;BME280;11469;49.024;8.246;2023-04-05T11:54:44;100877.47;;;9.07;41.17
22605;BME280;11469;49.024;8.246;2023-04-05T11:57:21;100877.00;;;9.05;39.11
22605;BME280;11469;49.024;8.246;2023-04-05T11:59:51;100870.47;;;9.22;39.71
22605;BME280;11469;49.024;8.246;2023-04-05T12:02:17;100869.91;;;9.28;39.72
22605;BME280;11469;49.024;8.246;2023-04-05T12:04:43;100867.19;;;9.41;38.21
22605;BME280;11469;49.024;8.246;2023-04-05T12:07:15;100869.38;;;9.35;38.56
22605;BME280;11469;49.024;8.246;2023-04-05T12:10:03;100880.09;;;9.33;38.21
22605;BME280;11469;49.024;8.246;2023-04-05T12:12:33;100861.03;;;8.55;38.66
22605;BME280;11469;49.024;8.246;2023-04-05T12:15:00;100873.72;;;8.82;38.61
22605;BME280;11469;49.024;8.246;2023-04-05T12:17:45;100858.88;;;9.11;39.26
22605;BME280;11469;49.024;8.246;2023-04-05T12:20:13;100857.41;;;9.47;39.89
22605;BME280;11469;49.024;8.246;2023-04-05T12:22:42;100857.41;;;9.47;36.82
22605;BME280;11469;49.024;8.246;2023-04-05T12:25:08;100860.28;;;9.38;35.57
22605;BME280;11469;49.024;8.246;2023-04-05T12:27:34;100851.03;;;9.58;35.79
22605;BME280;11469;49.024;8.246;2023-04-05T12:30:07;100856.13;;;9.44;36.81
22605;BME280;11469;49.024;8.246;2023-04-05T12:32:40;100850.53;;;9.03;38.02
22605;BME280;11469;49.024;8.246;2023-04-05T12:35:10;100836.56;;;9.23;37.85
22605;BME280;11469;49.024;8.246;2023-04-05T12:37:38;100834.38;;;9.62;38.17
22605;BME280;11469;49.024;8.246;2023-04-05T12:40:04;100828.34;;;9.72;38.63
22605;BME280;11469;49.024;8.246;2023-04-05T12:42:36;100830.03;;;9.85;37.52
22605;BME280;11469;49.024;8.246;2023-04-05T12:45:11;100824.53;;;9.44;37.71
22605;BME280;11469;49.024;8.246;2023-04-05T12:47:57;100825.94;;;9.50;36.57
22605;BME280;11469;49.024;8.246;2023-04-05T12:50:27;100829.72;;;9.33;36.04
22605;BME280;11469;49.024;8.246;2023-04-05T12:53:00;100825.31;;;9.32;38.03
22605;BME280;11469;49.024;8.246;2023-04-05T12:55:29;100817.88;;;9.81;38.38
22605;BME280;11469;49.024;8.246;2023-04-05T12:57:57;100817.44;;;9.91;37.43
22605;BME280;11469;49.024;8.246;2023-04-05T13:00:24;100808.44;;;9.98;38.42
22605;BME280;11469;49.024;8.246;2023-04-05T13:02:53;100810.31;;;10.06;36.52
22605;BME280;11469;49.024;8.246;2023-04-05T13:05:20;100802.44;;;10.20;36.93
22605;BME280;11469;49.024;8.246;2023-04-05T13:07:46;100800.09;;;10.22;37.16
22605;BME280;11469;49.024;8.246;2023-04-05T13:10:11;100798.31;;;10.42;35.64
22605;BME280;11469;49.024;8.246;2023-04-05T13:12:37;100801.94;;;10.18;34.68
22605;BME280;11469;49.024;8.246;2023-04-05T13:15:03;100805.78;;;10.14;34.05
22605;BME280;11469;49.024;8.246;2023-04-05T13:17:28;100793.63;;;10.10;33.41
22605;BME280;11469;49.024;8.246;2023-04-05T13:19:53;100790.25;;;10.16;35.53
22605;BME280;11469;49.024;8.246;2023-04-05T13:22:19;100778.97;;;10.25;34.86
22605;BME280;11469;49.024;8.246;2023-04-05T13:24:44;100774.88;;;10.35;34.88
22605;BME280;11469;49.024;8.246;2023-04-05T13:27:09;100778.56;;;10.63;34.31